sensor_id;sensor_type;location;lat;lon;timestamp;temperature;humidity
16315;DHT22;8266;52.150;4.768;2023-06-10T00:01:37;25.60;83.60
16315;DHT22;8266;52.150;4.768;2023-06-10T00:04:05;25.60;83.50
16315;DHT22;8266;52.150;4.768;2023-06-10T00:06:33;25.60;83.40
16315;DHT22;8266;52.150;4.768;2023-06-10T00:09:02;25.50;83.10
16315;DHT22;8266;52.150;4.768;2023-06-10T00:11:31;25.50;83.20
16315;DHT22;8266;52.150;4.768;2023-06-10T00:13:58;25.50;83.30
16315;DHT22;8266;52.150;4.768;2023-06-10T00:16:25;25.50;83.30
16315;DHT22;8266;52.150;4.768;2023-06-10T00:18:52;25.40;83.40
16315;DHT22;8266;52.150;4.768;2023-06-10T00:21:22;25.40;83.40
16315;DHT22;8266;52.150;4.768;2023-06-10T00:23:50;25.30;83.40
16315;DHT22;8266;52.150;4.768;2023-06-10T00:26:17;25.30;83.60
16315;DHT22;8266;52.150;4.768;2023-06-10T00:28:44;25.20;83.60
16315;DHT22;8266;52.150;4.768;2023-06-10T00:31:11;25.20;83.70
16315;DHT22;8266;52.150;4.768;2023-06-10T00:33:38;25.10;83.90
16315;DHT22;8266;52.150;4.768;2023-06-10T00:36:06;25.00;84.00
16315;DHT22;8266;52.150;4.768;2023-06-10T00:38:34;25.00;84.00
16315;DHT22;8266;52.150;4.768;2023-06-10T00:41:01;25.00;84.30
16315;DHT22;8266;52.150;4.768;2023-06-10T00:43:28;24.90;84.50
16315;DHT22;8266;52.150;4.768;2023-06-10T00:45:55;24.80;84.70
16315;DHT22;8266;52.150;4.768;2023-06-10T00:48:22;24.80;84.80
16315;DHT22;8266;52.150;4.768;2023-06-10T00:50:49;24.70;84.90
16315;DHT22;8266;52.150;4.768;2023-06-10T00:53:16;24.70;85.30
16315;DHT22;8266;52.150;4.768;2023-06-10T00:55:45;24.70;85.30
16315;DHT22;8266;52.150;4.768;2023-06-10T00:58:13;24.60;85.60
16315;DHT22;8266;52.150;4.768;2023-06-10T01:00:40;24.60;85.90
16315;DHT22;8266;52.150;4.768;2023-06-10T01:03:07;24.50;86.00
16315;DHT22;8266;52.150;4.768;2023-06-10T01:05:34;24.60;86.80
16315;DHT22;8266;52.150;4.768;2023-06-10T01:08:06;24.50;86.40
16315;DHT22;8266;52.150;4.768;2023-06-10T01:10:43;24.50;86.40
16315;DHT22;8266;52.150;4.768;2023-06-10T01:13:15;24.40;86.50
16315;DHT22;8266;52.150;4.768;2023-06-10T01:15:44;24.40;86.50
16315;DHT22;8266;52.150;4.768;2023-06-10T01:18:11;24.40;86.60
16315;DHT22;8266;52.150;4.768;2023-06-10T01:20:41;24.40;86.70
16315;DHT22;8266;52.150;4.768;2023-06-10T01:23:10;24.30;86.80
16315;DHT22;8266;52.150;4.768;2023-06-10T01:25:39;24.30;86.60
16315;DHT22;8266;52.150;4.768;2023-06-10T01:28:12;24.30;86.80
16315;DHT22;8266;52.150;4.768;2023-06-10T01:30:47;24.20;86.70
16315;DHT22;8266;52.150;4.768;2023-06-10T01:33:17;24.20;86.70
16315;DHT22;8266;52.150;4.768;2023-06-10T01:35:44;24.20;86.80
16315;DHT22;8266;52.150;4.768;2023-06-10T01:38:14;24.10;86.80
16315;DHT22;8266;52.150;4.768;2023-06-10T01:40:42;24.10;87.10
16315;DHT22;8266;52.150;4.768;2023-06-10T01:43:10;24.00;87.10
16315;DHT22;8266;52.150;4.768;2023-06-10T01:45:36;24.00;87.10
16315;DHT22;8266;52.150;4.768;2023-06-10T01:48:04;24.00;87.30
16315;DHT22;8266;52.150;4.768;2023-06-10T01:50:31;23.90;87.40
16315;DHT22;8266;52.150;4.768;2023-06-10T01:53:00;23.80;87.30
16315;DHT22;8266;52.150;4.768;2023-06-10T01:55:28;23.80;87.60
16315;DHT22;8266;52.150;4.768;2023-06-10T01:57:55;23.80;87.60
16315;DHT22;8266;52.150;4.768;2023-06-10T02:00:22;23.70;87.60
16315;DHT22;8266;52.150;4.768;2023-06-10T02:02:49;23.70;87.60
16315;DHT22;8266;52.150;4.768;2023-06-10T02:05:16;23.70;87.90
16315;DHT22;8266;52.150;4.768;2023-06-10T02:07:43;23.60;88.00
16315;DHT22;8266;52.150;4.768;2023-06-10T02:10:10;23.60;88.10
16315;DHT22;8266;52.150;4.768;2023-06-10T02:12:39;23.60;88.20
16315;DHT22;8266;52.150;4.768;2023-06-10T02:15:06;23.60;88.40
16315;DHT22;8266;52.150;4.768;2023-06-10T02:17:33;23.50;88.30
16315;DHT22;8266;52.150;4.768;2023-06-10T02:20:00;23.50;88.80
16315;DHT22;8266;52.150;4.768;2023-06-10T02:22:29;23.50;88.90
16315;DHT22;8266;52.150;4.768;2023-06-10T02:24:56;23.40;89.00
16315;DHT22;8266;52.150;4.768;2023-06-10T02:27:23;23.50;89.30
16315;DHT22;8266;52.150;4.768;2023-06-10T02:29:52;23.40;89.50
16315;DHT22;8266;52.150;4.768;2023-06-10T02:32:19;23.40;89.60
16315;DHT22;8266;52.150;4.768;2023-06-10T02:34:46;23.40;89.60
16315;DHT22;8266;52.150;4.768;2023-06-10T02:37:14;23.40;89.60
16315;DHT22;8266;52.150;4.768;2023-06-10T02:39:41;23.30;89.50
16315;DHT22;8266;52.150;4.768;2023-06-10T02:42:08;23.30;90.00
16315;DHT22;8266;52.150;4.768;2023-06-10T02:44:35;23.30;89.70
16315;DHT22;8266;52.150;4.768;2023-06-10T02:47:04;23.20;89.70
16315;DHT22;8266;52.150;4.768;2023-06-10T02:49:31;23.20;90.00
16315;DHT22;8266;52.150;4.768;2023-06-10T02:51:58;23.20;90.00
16315;DHT22;8266;52.150;4.768;2023-06-10T02:54:25;23.10;90.10
16315;DHT22;8266;52.150;4.768;2023-06-10T02:56:52;23.00;90.20
16315;DHT22;8266;52.150;4.768;2023-06-10T02:59:21;23.00;90.40
16315;DHT22;8266;52.150;4.768;2023-06-10T03:01:48;22.90;90.40
16315;DHT22;8266;52.150;4.768;2023-06-10T03:04:16;22.90;90.50
16315;DHT22;8266;52.150;4.768;2023-06-10T03:06:44;22.90;90.70
16315;DHT22;8266;52.150;4.768;2023-06-10T03:09:12;22.80;90.80
16315;DHT22;8266;52.150;4.768;2023-06-10T03:11:40;22.80;90.90
16315;DHT22;8266;52.150;4.768;2023-06-10T03:14:07;22.80;91.10
16315;DHT22;8266;52.150;4.768;2023-06-10T03:16:34;22.70;91.20
16315;DHT22;8266;52.150;4.768;2023-06-10T03:19:00;22.70;91.40
16315;DHT22;8266;52.150;4.768;2023-06-10T03:21:29;22.70;91.70
16315;DHT22;8266;52.150;4.768;2023-06-10T03:23:56;22.60;92.00
16315;DHT22;8266;52.150;4.768;2023-06-10T03:26:23;22.60;92.30
16315;DHT22;8266;52.150;4.768;2023-06-10T03:28:49;22.60;92.60
16315;DHT22;8266;52.150;4.768;2023-06-10T03:31:16;22.60;92.90
16315;DHT22;8266;52.150;4.768;2023-06-10T03:33:43;22.60;93.30
16315;DHT22;8266;52.150;4.768;2023-06-10T03:36:10;22.60;93.60
16315;DHT22;8266;52.150;4.768;2023-06-10T03:38:39;22.60;93.90
16315;DHT22;8266;52.150;4.768;2023-06-10T03:41:06;22.60;94.30
16315;DHT22;8266;52.150;4.768;2023-06-10T03:43:33;22.60;94.60
16315;DHT22;8266;52.150;4.768;2023-06-10T03:46:00;22.70;94.60
16315;DHT22;8266;52.150;4.768;2023-06-10T03:48:27;22.70;94.90
16315;DHT22;8266;52.150;4.768;2023-06-10T03:50:53;22.70;95.20
16315;DHT22;8266;52.150;4.768;2023-06-10T03:53:21;22.70;95.60
16315;DHT22;8266;52.150;4.768;2023-06-10T03:55:49;22.70;95.60
16315;DHT22;8266;52.150;4.768;2023-06-10T03:58:16;22.70;96.00
16315;DHT22;8266;52.150;4.768;2023-06-10T04:00:43;22.70;96.10
16315;DHT22;8266;52.150;4.768;2023-06-10T04:03:11;22.70;96.20
16315;DHT22;8266;52.150;4.768;2023-06-10T04:05:40;22.70;96.30
16315;DHT22;8266;52.150;4.768;2023-06-10T04:08:07;22.80;96.60
16315;DHT22;8266;52.150;4.768;2023-06-10T04:10:34;22.80;96.70
16315;DHT22;8266;52.150;4.768;2023-06-10T04:13:02;22.80;96.90
16315;DHT22;8266;52.150;4.768;2023-06-10T04:15:29;22.80;97.10
16315;DHT22;8266;52.150;4.768;2023-06-10T04:17:58;22.80;97.40
16315;DHT22;8266;52.150;4.768;2023-06-10T04:20:26;22.80;97.40
16315;DHT22;8266;52.150;4.768;2023-06-10T04:22:52;22.80;97.50
16315;DHT22;8266;52.150;4.768;2023-06-10T04:25:20;22.90;97.80
16315;DHT22;8266;52.150;4.768;2023-06-10T04:27:46;22.90;97.80
16315;DHT22;8266;52.150;4.768;2023-06-10T04:30:16;22.90;97.80
16315;DHT22;8266;52.150;4.768;2023-06-10T04:32:43;22.90;97.90
16315;DHT22;8266;52.150;4.768;2023-06-10T04:35:11;22.90;98.20
16315;DHT22;8266;52.150;4.768;2023-06-10T04:37:38;22.90;98.20
16315;DHT22;8266;52.150;4.768;2023-06-10T04:40:06;22.90;98.50
16315;DHT22;8266;52.150;4.768;2023-06-10T04:42:33;22.90;98.50
16315;DHT22;8266;52.150;4.768;2023-06-10T04:45:00;22.90;98.50
16315;DHT22;8266;52.150;4.768;2023-06-10T04:47:29;22.90;98.80
16315;DHT22;8266;52.150;4.768;2023-06-10T04:49:59;22.90;98.80
16315;DHT22;8266;52.150;4.768;2023-06-10T04:52:26;22.90;98.90
16315;DHT22;8266;52.150;4.768;2023-06-10T04:54:53;22.90;99.00
16315;DHT22;8266;52.150;4.768;2023-06-10T04:57:21;22.90;99.00
16315;DHT22;8266;52.150;4.768;2023-06-10T04:59:48;22.90;99.30
16315;DHT22;8266;52.150;4.768;2023-06-10T05:02:15;22.90;99.40
16315;DHT22;8266;52.150;4.768;2023-06-10T05:04:43;22.90;99.60
16315;DHT22;8266;52.150;4.768;2023-06-10T05:07:10;22.90;99.70
16315;DHT22;8266;52.150;4.768;2023-06-10T05:09:37;22.90;99.90
16315;DHT22;8266;52.150;4.768;2023-06-10T05:12:05;23.00;99.90
16315;DHT22;8266;52.150;4.768;2023-06-10T05:14:32;23.00;99.90
16315;DHT22;8266;52.150;4.768;2023-06-10T05:16:59;23.00;99.90
16315;DHT22;8266;52.150;4.768;2023-06-10T05:19:26;23.00;99.90
16315;DHT22;8266;52.150;4.768;2023-06-10T05:21:54;23.00;99.90
16315;DHT22;8266;52.150;4.768;2023-06-10T05:24:21;23.00;99.90
16315;DHT22;8266;52.150;4.768;2023-06-10T05:26:48;23.10;99.90
16315;DHT22;8266;52.150;4.768;2023-06-10T05:29:15;23.10;99.90
16315;DHT22;8266;52.150;4.768;2023-06-10T05:31:42;23.10;99.90
16315;DHT22;8266;52.150;4.768;2023-06-10T05:34:09;23.10;99.90
16315;DHT22;8266;52.150;4.768;2023-06-10T05:36:36;23.10;99.90
16315;DHT22;8266;52.150;4.768;2023-06-10T05:39:05;23.10;99.90
16315;DHT22;8266;52.150;4.768;2023-06-10T05:41:32;23.20;99.90
16315;DHT22;8266;52.150;4.768;2023-06-10T05:43:58;23.20;99.90
16315;DHT22;8266;52.150;4.768;2023-06-10T05:46:25;23.20;99.90
16315;DHT22;8266;52.150;4.768;2023-06-10T05:48:52;23.20;99.90
16315;DHT22;8266;52.150;4.768;2023-06-10T05:51:19;23.20;99.90
16315;DHT22;8266;52.150;4.768;2023-06-10T05:53:46;23.20;99.90
16315;DHT22;8266;52.150;4.768;2023-06-10T05:56:15;23.30;99.90
16315;DHT22;8266;52.150;4.768;2023-06-10T05:58:41;23.30;99.90
16315;DHT22;8266;52.150;4.768;2023-06-10T06:01:09;23.30;99.90
16315;DHT22;8266;52.150;4.768;2023-06-10T06:03:36;23.30;99.90
16315;DHT22;8266;52.150;4.768;2023-06-10T06:06:03;23.40;99.90
16315;DHT22;8266;52.150;4.768;2023-06-10T06:08:30;23.40;99.90
16315;DHT22;8266;52.150;4.768;2023-06-10T06:10:57;23.40;99.90
16315;DHT22;8266;52.150;4.768;2023-06-10T06:13:25;23.40;99.90
16315;DHT22;8266;52.150;4.768;2023-06-10T06:15:52;23.50;99.90
16315;DHT22;8266;52.150;4.768;2023-06-10T06:18:19;23.60;99.90
16315;DHT22;8266;52.150;4.768;2023-06-10T06:20:46;23.70;99.90
16315;DHT22;8266;52.150;4.768;2023-06-10T06:23:13;23.80;99.90
16315;DHT22;8266;52.150;4.768;2023-06-10T06:25:40;23.90;99.90
16315;DHT22;8266;52.150;4.768;2023-06-10T06:28:10;24.10;99.90
16315;DHT22;8266;52.150;4.768;2023-06-10T06:30:38;24.20;99.90
16315;DHT22;8266;52.150;4.768;2023-06-10T06:33:05;24.40;99.90
16315;DHT22;8266;52.150;4.768;2023-06-10T06:35:32;24.70;99.90
16315;DHT22;8266;52.150;4.768;2023-06-10T06:37:59;24.90;99.90
16315;DHT22;8266;52.150;4.768;2023-06-10T06:40:26;25.20;99.90
16315;DHT22;8266;52.150;4.768;2023-06-10T06:42:53;25.50;99.90
16315;DHT22;8266;52.150;4.768;2023-06-10T06:45:20;25.80;99.90
16315;DHT22;8266;52.150;4.768;2023-06-10T06:47:48;26.10;99.90
16315;DHT22;8266;52.150;4.768;2023-06-10T06:50:16;26.40;99.90
16315;DHT22;8266;52.150;4.768;2023-06-10T06:52:43;26.70;99.90
16315;DHT22;8266;52.150;4.768;2023-06-10T06:55:10;27.00;99.40
16315;DHT22;8266;52.150;4.768;2023-06-10T06:57:37;27.30;98.50
16315;DHT22;8266;52.150;4.768;2023-06-10T07:00:05;27.50;97.60
16315;DHT22;8266;52.150;4.768;2023-06-10T07:02:33;27.70;97.10
16315;DHT22;8266;52.150;4.768;2023-06-10T07:05:02;27.90;96.90
16315;DHT22;8266;52.150;4.768;2023-06-10T07:07:29;28.20;96.00
16315;DHT22;8266;52.150;4.768;2023-06-10T07:09:56;28.40;95.30
16315;DHT22;8266;52.150;4.768;2023-06-10T07:12:23;28.60;94.70
16315;DHT22;8266;52.150;4.768;2023-06-10T07:14:50;28.70;93.30
16315;DHT22;8266;52.150;4.768;2023-06-10T07:17:17;28.70;93.20
16315;DHT22;8266;52.150;4.768;2023-06-10T07:19:44;28.80;92.90
16315;DHT22;8266;52.150;4.768;2023-06-10T07:22:13;28.80;92.10
16315;DHT22;8266;52.150;4.768;2023-06-10T07:24:40;28.90;92.00
16315;DHT22;8266;52.150;4.768;2023-06-10T07:27:08;28.90;91.10
16315;DHT22;8266;52.150;4.768;2023-06-10T07:29:35;28.90;91.10
16315;DHT22;8266;52.150;4.768;2023-06-10T07:32:03;28.90;91.00
16315;DHT22;8266;52.150;4.768;2023-06-10T07:34:30;28.90;90.70
16315;DHT22;8266;52.150;4.768;2023-06-10T07:36:57;29.00;90.20
16315;DHT22;8266;52.150;4.768;2023-06-10T07:39:25;29.00;89.70
16315;DHT22;8266;52.150;4.768;2023-06-10T07:41:53;29.00;89.50
16315;DHT22;8266;52.150;4.768;2023-06-10T07:44:22;29.00;89.80
16315;DHT22;8266;52.150;4.768;2023-06-10T07:46:49;29.00;88.40
16315;DHT22;8266;52.150;4.768;2023-06-10T07:49:16;29.00;87.50
16315;DHT22;8266;52.150;4.768;2023-06-10T07:51:43;28.90;87.80
16315;DHT22;8266;52.150;4.768;2023-06-10T07:54:10;28.90;87.50
16315;DHT22;8266;52.150;4.768;2023-06-10T07:56:40;28.80;87.30
16315;DHT22;8266;52.150;4.768;2023-06-10T07:59:07;28.80;87.40
16315;DHT22;8266;52.150;4.768;2023-06-10T08:01:34;28.80;88.00
16315;DHT22;8266;52.150;4.768;2023-06-10T08:04:03;28.80;89.20
16315;DHT22;8266;52.150;4.768;2023-06-10T08:06:30;28.90;88.70
16315;DHT22;8266;52.150;4.768;2023-06-10T08:08:57;29.00;88.90
16315;DHT22;8266;52.150;4.768;2023-06-10T08:11:25;29.10;89.40
16315;DHT22;8266;52.150;4.768;2023-06-10T08:13:55;29.20;88.90
16315;DHT22;8266;52.150;4.768;2023-06-10T08:16:23;29.30;88.60
16315;DHT22;8266;52.150;4.768;2023-06-10T08:18:50;29.40;88.10
16315;DHT22;8266;52.150;4.768;2023-06-10T08:21:17;29.40;87.60
16315;DHT22;8266;52.150;4.768;2023-06-10T08:23:44;29.50;86.50
16315;DHT22;8266;52.150;4.768;2023-06-10T08:26:11;29.50;86.10
16315;DHT22;8266;52.150;4.768;2023-06-10T08:28:38;29.60;85.50
16315;DHT22;8266;52.150;4.768;2023-06-10T08:31:06;29.60;84.80
16315;DHT22;8266;52.150;4.768;2023-06-10T08:33:33;29.70;84.70
16315;DHT22;8266;52.150;4.768;2023-06-10T08:36:00;29.70;84.40
16315;DHT22;8266;52.150;4.768;2023-06-10T08:38:27;29.80;84.70
16315;DHT22;8266;52.150;4.768;2023-06-10T08:40:56;29.80;84.30
16315;DHT22;8266;52.150;4.768;2023-06-10T08:43:31;29.80;85.20
16315;DHT22;8266;52.150;4.768;2023-06-10T08:46:00;29.80;83.60
16315;DHT22;8266;52.150;4.768;2023-06-10T08:48:29;29.90;85.00
16315;DHT22;8266;52.150;4.768;2023-06-10T08:50:57;29.90;84.40
16315;DHT22;8266;52.150;4.768;2023-06-10T08:53:26;30.00;83.50
16315;DHT22;8266;52.150;4.768;2023-06-10T08:55:54;30.10;85.20
16315;DHT22;8266;52.150;4.768;2023-06-10T08:58:25;30.10;84.60
16315;DHT22;8266;52.150;4.768;2023-06-10T09:00:52;30.20;83.60
16315;DHT22;8266;52.150;4.768;2023-06-10T09:03:19;30.30;82.40
16315;DHT22;8266;52.150;4.768;2023-06-10T09:05:49;30.30;82.10
16315;DHT22;8266;52.150;4.768;2023-06-10T09:08:16;30.40;81.60
16315;DHT22;8266;52.150;4.768;2023-06-10T09:10:43;30.50;81.60
16315;DHT22;8266;52.150;4.768;2023-06-10T09:13:10;30.50;80.60
16315;DHT22;8266;52.150;4.768;2023-06-10T09:15:41;30.60;80.30
16315;DHT22;8266;52.150;4.768;2023-06-10T09:18:08;30.70;80.20
16315;DHT22;8266;52.150;4.768;2023-06-10T09:20:35;30.70;80.00
16315;DHT22;8266;52.150;4.768;2023-06-10T09:23:03;30.70;79.30
16315;DHT22;8266;52.150;4.768;2023-06-10T09:25:37;30.80;78.30
16315;DHT22;8266;52.150;4.768;2023-06-10T09:28:08;30.80;77.50
16315;DHT22;8266;52.150;4.768;2023-06-10T09:30:39;30.90;78.50
16315;DHT22;8266;52.150;4.768;2023-06-10T09:33:10;30.90;78.00
16315;DHT22;8266;52.150;4.768;2023-06-10T09:35:45;30.90;77.60
16315;DHT22;8266;52.150;4.768;2023-06-10T09:38:19;31.00;78.00
16315;DHT22;8266;52.150;4.768;2023-06-10T09:40:50;31.10;77.40
16315;DHT22;8266;52.150;4.768;2023-06-10T09:43:17;31.10;77.00
16315;DHT22;8266;52.150;4.768;2023-06-10T09:45:47;31.20;76.90
16315;DHT22;8266;52.150;4.768;2023-06-10T09:48:14;31.30;76.10
16315;DHT22;8266;52.150;4.768;2023-06-10T09:50:45;31.40;75.50
16315;DHT22;8266;52.150;4.768;2023-06-10T09:53:13;31.40;74.60
16315;DHT22;8266;52.150;4.768;2023-06-10T09:55:41;31.50;74.00
16315;DHT22;8266;52.150;4.768;2023-06-10T09:58:08;31.50;75.20
16315;DHT22;8266;52.150;4.768;2023-06-10T10:00:36;31.60;75.30
16315;DHT22;8266;52.150;4.768;2023-06-10T10:03:03;31.60;74.30
16315;DHT22;8266;52.150;4.768;2023-06-10T10:05:32;31.70;74.60
16315;DHT22;8266;52.150;4.768;2023-06-10T10:07:59;31.80;75.30
16315;DHT22;8266;52.150;4.768;2023-06-10T10:10:27;31.90;73.60
16315;DHT22;8266;52.150;4.768;2023-06-10T10:12:55;32.00;73.20
16315;DHT22;8266;52.150;4.768;2023-06-10T10:15:24;32.10;73.60
16315;DHT22;8266;52.150;4.768;2023-06-10T10:18:00;32.20;74.10
16315;DHT22;8266;52.150;4.768;2023-06-10T10:20:32;32.20;73.10
16315;DHT22;8266;52.150;4.768;2023-06-10T10:23:02;32.30;73.70
16315;DHT22;8266;52.150;4.768;2023-06-10T10:25:34;32.30;73.30
16315;DHT22;8266;52.150;4.768;2023-06-10T10:28:06;32.40;71.90
16315;DHT22;8266;52.150;4.768;2023-06-10T10:30:39;32.50;71.30
16315;DHT22;8266;52.150;4.768;2023-06-10T10:33:13;32.50;70.00
16315;DHT22;8266;52.150;4.768;2023-06-10T10:35:43;32.60;69.80
16315;DHT22;8266;52.150;4.768;2023-06-10T10:38:11;32.60;69.10
16315;DHT22;8266;52.150;4.768;2023-06-10T10:40:40;32.60;69.10
16315;DHT22;8266;52.150;4.768;2023-06-10T10:43:07;32.60;69.40
16315;DHT22;8266;52.150;4.768;2023-06-10T10:45:35;32.60;68.80
16315;DHT22;8266;52.150;4.768;2023-06-10T10:48:07;32.60;67.80
16315;DHT22;8266;52.150;4.768;2023-06-10T10:50:38;32.60;67.10
16315;DHT22;8266;52.150;4.768;2023-06-10T10:53:06;32.60;65.90
16315;DHT22;8266;52.150;4.768;2023-06-10T10:55:33;32.60;65.90
16315;DHT22;8266;52.150;4.768;2023-06-10T10:58:05;32.60;65.40
16315;DHT22;8266;52.150;4.768;2023-06-10T11:00:34;32.60;65.30
16315;DHT22;8266;52.150;4.768;2023-06-10T11:03:06;32.70;65.10
16315;DHT22;8266;52.150;4.768;2023-06-10T11:05:38;32.70;65.60
16315;DHT22;8266;52.150;4.768;2023-06-10T11:08:07;32.80;63.80
16315;DHT22;8266;52.150;4.768;2023-06-10T11:10:35;32.80;62.70
16315;DHT22;8266;52.150;4.768;2023-06-10T11:13:07;32.80;62.60
16315;DHT22;8266;52.150;4.768;2023-06-10T11:15:39;32.80;63.60
16315;DHT22;8266;52.150;4.768;2023-06-10T11:18:19;32.90;62.90
16315;DHT22;8266;52.150;4.768;2023-06-10T11:21:00;32.90;62.60
16315;DHT22;8266;52.150;4.768;2023-06-10T11:23:38;33.00;62.30
16315;DHT22;8266;52.150;4.768;2023-06-10T11:26:30;33.00;61.40
16315;DHT22;8266;52.150;4.768;2023-06-10T11:29:04;33.00;60.60
16315;DHT22;8266;52.150;4.768;2023-06-10T11:31:32;33.00;60.20
16315;DHT22;8266;52.150;4.768;2023-06-10T11:34:00;32.90;60.50
16315;DHT22;8266;52.150;4.768;2023-06-10T11:36:29;32.90;58.90
16315;DHT22;8266;52.150;4.768;2023-06-10T11:38:57;32.90;59.20
16315;DHT22;8266;52.150;4.768;2023-06-10T11:41:24;32.90;59.90
16315;DHT22;8266;52.150;4.768;2023-06-10T11:43:52;33.00;60.00
16315;DHT22;8266;52.150;4.768;2023-06-10T11:46:23;33.10;59.20
16315;DHT22;8266;52.150;4.768;2023-06-10T11:48:52;33.10;59.80
16315;DHT22;8266;52.150;4.768;2023-06-10T11:51:20;33.10;58.60
16315;DHT22;8266;52.150;4.768;2023-06-10T11:53:47;33.20;58.30
16315;DHT22;8266;52.150;4.768;2023-06-10T11:56:19;33.20;58.30
16315;DHT22;8266;52.150;4.768;2023-06-10T11:58:53;33.30;57.90
16315;DHT22;8266;52.150;4.768;2023-06-10T12:01:22;33.30;57.70
16315;DHT22;8266;52.150;4.768;2023-06-10T12:03:57;33.20;57.30
16315;DHT22;8266;52.150;4.768;2023-06-10T12:06:24;33.30;58.20
16315;DHT22;8266;52.150;4.768;2023-06-10T12:08:51;33.30;57.30
16315;DHT22;8266;52.150;4.768;2023-06-10T12:11:18;33.30;57.00
16315;DHT22;8266;52.150;4.768;2023-06-10T12:13:46;33.30;57.40
16315;DHT22;8266;52.150;4.768;2023-06-10T12:16:15;33.30;56.90
16315;DHT22;8266;52.150;4.768;2023-06-10T12:18:44;33.40;56.70
16315;DHT22;8266;52.150;4.768;2023-06-10T12:21:19;33.40;56.70
16315;DHT22;8266;52.150;4.768;2023-06-10T12:24:03;33.40;56.70
16315;DHT22;8266;52.150;4.768;2023-06-10T12:26:38;33.50;56.60
16315;DHT22;8266;52.150;4.768;2023-06-10T12:29:15;33.50;55.50
16315;DHT22;8266;52.150;4.768;2023-06-10T12:32:07;33.50;56.10
16315;DHT22;8266;52.150;4.768;2023-06-10T12:34:38;33.60;56.20
16315;DHT22;8266;52.150;4.768;2023-06-10T12:37:10;33.60;55.00
16315;DHT22;8266;52.150;4.768;2023-06-10T12:39:39;33.50;55.10
16315;DHT22;8266;52.150;4.768;2023-06-10T12:42:08;33.60;55.20
16315;DHT22;8266;52.150;4.768;2023-06-10T12:44:38;33.60;55.50
16315;DHT22;8266;52.150;4.768;2023-06-10T12:47:09;33.60;55.30
16315;DHT22;8266;52.150;4.768;2023-06-10T12:49:39;33.60;55.20
16315;DHT22;8266;52.150;4.768;2023-06-10T12:52:06;33.70;54.60
16315;DHT22;8266;52.150;4.768;2023-06-10T12:54:34;33.80;54.90
16315;DHT22;8266;52.150;4.768;2023-06-10T12:57:02;33.80;54.90
16315;DHT22;8266;52.150;4.768;2023-06-10T12:59:29;33.90;54.70
16315;DHT22;8266;52.150;4.768;2023-06-10T13:01:58;33.90;53.90
16315;DHT22;8266;52.150;4.768;2023-06-10T13:04:25;34.00;53.40
16315;DHT22;8266;52.150;4.768;2023-06-10T13:06:53;34.00;53.70
16315;DHT22;8266;52.150;4.768;2023-06-10T13:09:21;34.00;53.00
16315;DHT22;8266;52.150;4.768;2023-06-10T13:11:48;34.00;53.10
16315;DHT22;8266;52.150;4.768;2023-06-10T13:14:15;34.00;52.50
16315;DHT22;8266;52.150;4.768;2023-06-10T13:16:42;34.00;52.40
16315;DHT22;8266;52.150;4.768;2023-06-10T13:19:10;34.00;52.20
16315;DHT22;8266;52.150;4.768;2023-06-10T13:21:37;33.90;52.20
16315;DHT22;8266;52.150;4.768;2023-06-10T13:24:05;33.90;52.60
16315;DHT22;8266;52.150;4.768;2023-06-10T13:26:32;33.90;52.30
16315;DHT22;8266;52.150;4.768;2023-06-10T13:28:59;33.90;52.00
16315;DHT22;8266;52.150;4.768;2023-06-10T13:31:26;33.90;53.50
16315;DHT22;8266;52.150;4.768;2023-06-10T13:33:53;33.80;53.60
16315;DHT22;8266;52.150;4.768;2023-06-10T13:36:20;33.90;54.40
16315;DHT22;8266;52.150;4.768;2023-06-10T13:38:47;33.90;54.10
16315;DHT22;8266;52.150;4.768;2023-06-10T13:41:16;34.00;54.10
16315;DHT22;8266;52.150;4.768;2023-06-10T13:43:42;33.90;53.90
16315;DHT22;8266;52.150;4.768;2023-06-10T13:46:10;33.90;53.60
16315;DHT22;8266;52.150;4.768;2023-06-10T13:48:36;33.80;54.50
16315;DHT22;8266;52.150;4.768;2023-06-10T13:51:03;33.80;54.90
16315;DHT22;8266;52.150;4.768;2023-06-10T13:53:30;33.80;55.40
16315;DHT22;8266;52.150;4.768;2023-06-10T13:55:57;33.70;55.50
16315;DHT22;8266;52.150;4.768;2023-06-10T13:58:26;33.70;55.50
16315;DHT22;8266;52.150;4.768;2023-06-10T14:00:53;33.70;55.40
16315;DHT22;8266;52.150;4.768;2023-06-10T14:03:20;33.60;55.40
16315;DHT22;8266;52.150;4.768;2023-06-10T14:05:47;33.70;55.50
16315;DHT22;8266;52.150;4.768;2023-06-10T14:08:14;33.70;55.30
16315;DHT22;8266;52.150;4.768;2023-06-10T14:10:41;33.60;55.40
16315;DHT22;8266;52.150;4.768;2023-06-10T14:13:08;33.60;55.20
16315;DHT22;8266;52.150;4.768;2023-06-10T14:15:36;33.60;54.70
16315;DHT22;8266;52.150;4.768;2023-06-10T14:18:04;33.50;54.60
16315;DHT22;8266;52.150;4.768;2023-06-10T14:20:31;33.50;55.20
16315;DHT22;8266;52.150;4.768;2023-06-10T14:22:58;33.40;55.30
16315;DHT22;8266;52.150;4.768;2023-06-10T14:25:25;33.40;55.50
16315;DHT22;8266;52.150;4.768;2023-06-10T14:27:52;33.40;55.30
16315;DHT22;8266;52.150;4.768;2023-06-10T14:30:19;33.30;55.10
16315;DHT22;8266;52.150;4.768;2023-06-10T14:32:47;33.30;55.40
16315;DHT22;8266;52.150;4.768;2023-06-10T14:35:15;33.20;55.20
16315;DHT22;8266;52.150;4.768;2023-06-10T14:37:42;33.20;55.00
16315;DHT22;8266;52.150;4.768;2023-06-10T14:40:10;33.20;55.10
16315;DHT22;8266;52.150;4.768;2023-06-10T14:42:37;33.20;55.20
16315;DHT22;8266;52.150;4.768;2023-06-10T14:45:05;33.10;55.10
16315;DHT22;8266;52.150;4.768;2023-06-10T14:47:32;33.10;55.30
16315;DHT22;8266;52.150;4.768;2023-06-10T14:50:00;33.20;55.50
16315;DHT22;8266;52.150;4.768;2023-06-10T14:52:27;33.20;54.90
16315;DHT22;8266;52.150;4.768;2023-06-10T14:54:54;33.20;55.30
16315;DHT22;8266;52.150;4.768;2023-06-10T14:57:21;33.20;55.20
16315;DHT22;8266;52.150;4.768;2023-06-10T14:59:48;33.10;54.90
16315;DHT22;8266;52.150;4.768;2023-06-10T15:02:14;33.20;54.60
16315;DHT22;8266;52.150;4.768;2023-06-10T15:04:41;33.10;54.30
16315;DHT22;8266;52.150;4.768;2023-06-10T15:07:10;33.10;54.40
16315;DHT22;8266;52.150;4.768;2023-06-10T15:09:36;33.00;54.20
16315;DHT22;8266;52.150;4.768;2023-06-10T15:12:04;33.10;54.40
16315;DHT22;8266;52.150;4.768;2023-06-10T15:14:31;33.00;53.90
16315;DHT22;8266;52.150;4.768;2023-06-10T15:16:58;33.00;53.70
16315;DHT22;8266;52.150;4.768;2023-06-10T15:19:26;32.90;53.90
16315;DHT22;8266;52.150;4.768;2023-06-10T15:21:53;33.00;53.40
16315;DHT22;8266;52.150;4.768;2023-06-10T15:24:21;32.90;53.00
16315;DHT22;8266;52.150;4.768;2023-06-10T15:26:48;32.90;53.00
16315;DHT22;8266;52.150;4.768;2023-06-10T15:29:15;32.80;52.40
16315;DHT22;8266;52.150;4.768;2023-06-10T15:31:42;32.80;52.20
16315;DHT22;8266;52.150;4.768;2023-06-10T15:34:09;32.80;52.00
16315;DHT22;8266;52.150;4.768;2023-06-10T15:36:36;32.80;52.60
16315;DHT22;8266;52.150;4.768;2023-06-10T15:39:04;32.70;52.40
16315;DHT22;8266;52.150;4.768;2023-06-10T15:41:33;32.70;51.70
16315;DHT22;8266;52.150;4.768;2023-06-10T15:44:01;32.70;52.00
16315;DHT22;8266;52.150;4.768;2023-06-10T15:46:28;32.60;52.00
16315;DHT22;8266;52.150;4.768;2023-06-10T15:48:55;32.70;51.50
16315;DHT22;8266;52.150;4.768;2023-06-10T15:51:23;32.70;51.40